createdAt,value
2018-07-28T00:00:41.040Z,20.70
2018-07-28T00:03:11.697Z,20.60
2018-07-28T00:08:12.989Z,20.40
2018-07-28T00:13:13.674Z,20.40
2018-07-28T00:18:15.683Z,20.30
2018-07-28T00:20:46.228Z,20.30
2018-07-28T00:23:16.915Z,20.30
2018-07-28T00:25:52.248Z,20.20
2018-07-28T00:28:22.893Z,20.20
2018-07-28T00:30:53.575Z,20.20
2018-07-28T00:33:25.349Z,20.10
2018-07-28T00:35:56.478Z,20.10
2018-07-28T00:38:27.943Z,20.10
2018-07-28T00:40:58.530Z,20.10
2018-07-28T00:43:29.000Z,20.10
2018-07-28T00:45:59.594Z,20.10
2018-07-28T00:48:30.166Z,20.10
2018-07-28T00:51:00.623Z,20.10
2018-07-28T00:53:31.362Z,20.10
2018-07-28T00:56:01.873Z,20.10
2018-07-28T00:58:32.417Z,20.00
2018-07-28T01:01:02.842Z,20.00
2018-07-28T01:03:34.213Z,20.00
2018-07-28T01:06:05.299Z,20.00
2018-07-28T01:08:35.750Z,20.00
2018-07-28T01:11:06.402Z,19.90
2018-07-28T01:13:37.087Z,19.90
2018-07-28T01:16:07.653Z,19.90
2018-07-28T01:18:38.331Z,19.90
2018-07-28T01:21:10.516Z,19.90
2018-07-28T01:23:41.240Z,19.90
2018-07-28T01:26:11.831Z,19.80
2018-07-28T01:28:42.559Z,19.80
2018-07-28T01:31:13.435Z,19.80
2018-07-28T01:33:44.963Z,19.80
2018-07-28T01:36:15.462Z,19.70
2018-07-28T01:38:46.916Z,19.70
2018-07-28T01:41:17.421Z,19.70
2018-07-28T01:43:47.889Z,19.60
2018-07-28T01:46:18.376Z,19.60
2018-07-28T01:48:49.040Z,19.60
2018-07-28T01:51:20.165Z,19.60
2018-07-28T01:53:51.737Z,19.50
2018-07-28T01:56:22.291Z,19.60
2018-07-28T01:58:52.892Z,19.50
2018-07-28T02:01:23.515Z,19.50
2018-07-28T02:03:54.273Z,19.50
2018-07-28T02:06:24.900Z,19.50
2018-07-28T02:08:55.581Z,19.40
2018-07-28T02:11:26.742Z,19.40
2018-07-28T02:13:57.388Z,19.30
2018-07-28T02:16:28.057Z,19.20
2018-07-28T02:18:58.514Z,19.20
2018-07-28T02:21:28.969Z,19.20
2018-07-28T02:23:59.567Z,19.10
2018-07-28T02:26:30.217Z,19.20
2018-07-28T02:29:02.378Z,19.20
2018-07-28T02:31:33.758Z,19.20
2018-07-28T02:34:04.575Z,19.30
2018-07-28T02:36:35.140Z,19.20
2018-07-28T02:41:37.757Z,19.20
2018-07-28T02:46:39.682Z,19.20
2018-07-28T02:51:40.906Z,18.90
2018-07-28T02:54:11.518Z,18.80
2018-07-28T02:56:42.056Z,18.80
2018-07-28T02:59:12.584Z,18.80
2018-07-28T03:01:42.954Z,18.70
2018-07-28T03:04:13.606Z,18.80
2018-07-28T03:06:44.627Z,18.80
2018-07-28T03:09:15.887Z,18.80
2018-07-28T03:11:46.370Z,18.70
2018-07-28T03:14:17.033Z,18.70
2018-07-28T03:16:47.566Z,18.60
2018-07-28T03:19:18.141Z,18.50
2018-07-28T03:21:48.701Z,18.50
2018-07-28T03:24:19.480Z,18.50
2018-07-28T03:26:50.635Z,18.60
2018-07-28T03:29:22.105Z,18.60
2018-07-28T03:31:52.754Z,18.70
2018-07-28T03:34:23.295Z,18.80
2018-07-28T03:39:23.737Z,18.90
2018-07-28T03:41:54.303Z,18.90
2018-07-28T03:44:24.880Z,18.90
2018-07-28T03:46:56.028Z,18.90
2018-07-28T03:49:27.269Z,18.90
2018-07-28T03:51:57.745Z,18.90
2018-07-28T03:54:28.251Z,18.90
2018-07-28T03:56:58.727Z,18.90
2018-07-28T03:59:29.295Z,18.70
2018-07-28T04:04:30.606Z,18.40
2018-07-28T04:07:02.031Z,18.40
2018-07-28T04:09:32.996Z,18.30
2018-07-28T04:12:03.436Z,18.30
2018-07-28T04:14:33.952Z,18.30
2018-07-28T04:17:04.452Z,18.30
2018-07-28T04:19:35.720Z,18.30
2018-07-28T04:22:06.257Z,18.40
2018-07-28T04:24:36.980Z,18.40
2018-07-28T04:27:08.338Z,18.40
2018-07-28T04:29:38.978Z,18.40
2018-07-28T04:32:09.667Z,18.50
2018-07-28T04:34:40.393Z,18.50
2018-07-28T04:37:11.043Z,18.60
2018-07-28T04:39:41.469Z,18.60
2018-07-28T04:42:12.654Z,18.60
2018-07-28T04:44:44.366Z,18.60
2018-07-28T04:47:16.074Z,18.70
2018-07-28T04:49:46.590Z,18.70
2018-07-28T04:52:17.407Z,18.70
2018-07-28T04:54:48.003Z,18.70
2018-07-28T04:57:18.534Z,18.80
2018-07-28T04:59:48.925Z,18.90
2018-07-28T05:04:50.855Z,19.10
2018-07-28T05:07:21.922Z,19.20
2018-07-28T05:12:22.538Z,19.10
2018-07-28T05:14:53.035Z,19.10
2018-07-28T05:17:23.602Z,19.20
2018-07-28T05:19:54.734Z,19.30
2018-07-28T05:22:27.493Z,19.30
2018-07-28T05:24:59.005Z,19.40
2018-07-28T05:27:30.010Z,19.50
2018-07-28T05:30:00.718Z,19.60
2018-07-28T05:37:32.049Z,19.90
2018-07-28T05:40:03.136Z,20.00
2018-07-28T05:42:34.132Z,20.20
2018-07-28T05:45:06.107Z,20.30
2018-07-28T05:47:37.175Z,20.50
2018-07-28T05:50:09.655Z,20.70
2018-07-28T05:52:40.482Z,20.80
2018-07-28T05:55:11.363Z,20.90
2018-07-28T05:57:41.877Z,20.90
2018-07-28T06:00:13.290Z,21.00
2018-07-28T06:02:47.189Z,21.20
2018-07-28T06:05:19.107Z,21.40
2018-07-28T06:07:50.354Z,21.60
2018-07-28T06:10:21.783Z,21.80
2018-07-28T06:12:52.742Z,22.20
2018-07-28T06:15:23.500Z,22.70
2018-07-28T06:17:54.796Z,23.20
2018-07-28T06:20:26.305Z,23.80
2018-07-28T06:22:57.222Z,24.10
2018-07-28T06:25:28.444Z,24.30
2018-07-28T06:28:00.125Z,24.40
2018-07-28T06:30:31.330Z,23.70
2018-07-28T06:33:02.215Z,22.90
2018-07-28T06:35:34.394Z,23.10
2018-07-28T06:38:05.503Z,23.70
2018-07-28T06:40:36.873Z,23.90
2018-07-28T06:43:09.737Z,24.00
2018-07-28T06:45:42.622Z,24.70
2018-07-28T06:48:15.083Z,25.30
2018-07-28T06:50:46.999Z,24.70
2018-07-28T06:53:18.524Z,24.10
2018-07-28T06:55:49.749Z,24.80
2018-07-28T06:58:20.915Z,25.10
2018-07-28T07:00:53.460Z,24.60
2018-07-28T07:03:24.998Z,25.40
2018-07-28T07:08:27.437Z,26.60
2018-07-28T07:10:58.218Z,27.10
2018-07-28T07:13:30.224Z,27.30
2018-07-28T07:16:01.789Z,26.20
2018-07-28T07:18:34.560Z,25.60
2018-07-28T07:21:06.577Z,25.50
2018-07-28T07:23:37.411Z,24.50
2018-07-28T07:26:09.140Z,24.00
2018-07-28T07:28:39.970Z,23.60
2018-07-28T07:31:11.237Z,23.50
2018-07-28T07:33:43.561Z,23.30
2018-07-28T07:36:14.567Z,23.70
2018-07-28T07:38:46.123Z,23.70
2018-07-28T07:41:17.478Z,24.20
2018-07-28T07:43:48.206Z,25.20
2018-07-28T07:46:18.952Z,26.30
2018-07-28T07:48:50.191Z,27.10
2018-07-28T07:51:21.994Z,26.80
2018-07-28T07:53:53.258Z,26.60
2018-07-28T07:56:24.749Z,26.00
2018-07-28T07:58:55.966Z,26.20
2018-07-28T08:01:27.020Z,27.10
2018-07-28T08:03:57.645Z,26.30
2018-07-28T08:06:28.484Z,25.70
2018-07-28T08:08:59.384Z,26.90
2018-07-28T08:11:30.813Z,27.00
2018-07-28T08:14:02.209Z,27.10
2018-07-28T08:16:32.804Z,28.60
2018-07-28T08:21:33.721Z,27.70
2018-07-28T08:24:04.461Z,27.70
2018-07-28T08:26:36.388Z,27.60
2018-07-28T08:29:08.773Z,28.00
2018-07-28T08:31:40.339Z,29.10
2018-07-28T08:34:11.543Z,29.60
2018-07-28T08:36:46.148Z,31.20
2018-07-28T08:39:19.274Z,32.00
2018-07-28T08:41:50.995Z,31.40
2018-07-28T08:44:22.607Z,31.30
2018-07-28T08:46:55.332Z,31.60
2018-07-28T08:49:25.862Z,31.40
2018-07-28T08:51:56.833Z,30.90
2018-07-28T08:54:27.370Z,30.90
2018-07-28T08:56:57.998Z,30.70
2018-07-28T08:59:28.638Z,30.60
2018-07-28T09:02:00.854Z,30.10
2018-07-28T09:04:33.435Z,30.20
2018-07-28T09:07:04.831Z,30.50
2018-07-28T09:09:35.759Z,31.30
2018-07-28T09:12:06.451Z,32.80
2018-07-28T09:14:38.062Z,31.90
2018-07-28T09:17:09.045Z,32.90
2018-07-28T09:19:39.781Z,33.30
2018-07-28T09:22:12.432Z,33.40
2018-07-28T09:24:43.991Z,34.10
2018-07-28T09:27:14.773Z,34.80
2018-07-28T09:29:45.923Z,35.00
2018-07-28T09:32:20.565Z,35.10
2018-07-28T09:34:55.400Z,35.10
2018-07-28T09:37:28.616Z,34.40
2018-07-28T09:40:00.841Z,32.40
2018-07-28T09:42:31.654Z,32.00
2018-07-28T09:45:02.890Z,33.10
2018-07-28T09:47:34.226Z,33.60
2018-07-28T09:50:16.364Z,34.80
2018-07-28T09:52:51.001Z,35.30
2018-07-28T09:55:22.664Z,34.10
2018-07-28T09:57:54.355Z,33.10
2018-07-28T10:00:32.165Z,33.70
2018-07-28T10:03:05.723Z,34.10
2018-07-28T10:05:37.737Z,34.70
2018-07-28T10:08:10.670Z,35.20
2018-07-28T10:10:43.622Z,36.20
2018-07-28T10:13:15.912Z,36.30
2018-07-28T10:15:49.141Z,36.10
2018-07-28T10:18:22.799Z,36.70
2018-07-28T10:20:57.032Z,36.40
2018-07-28T10:23:29.038Z,37.10
2018-07-28T10:26:02.129Z,37.30
2018-07-28T10:28:38.015Z,37.00
2018-07-28T10:31:12.989Z,36.70
2018-07-28T10:33:45.253Z,36.50
2018-07-28T10:36:17.509Z,36.90
2018-07-28T10:41:20.278Z,37.50
2018-07-28T10:43:51.544Z,37.70
2018-07-28T10:46:25.589Z,37.80
2018-07-28T10:48:56.927Z,37.90
2018-07-28T10:51:27.824Z,37.40
2018-07-28T10:53:58.760Z,37.60
2018-07-28T10:56:29.860Z,37.50
2018-07-28T10:59:00.533Z,37.10
2018-07-28T11:01:32.545Z,37.00
2018-07-28T11:04:04.575Z,35.80
2018-07-28T11:06:35.263Z,33.80
2018-07-28T11:09:09.026Z,32.80
2018-07-28T11:11:39.846Z,33.30
2018-07-28T11:14:10.595Z,33.90
2018-07-28T11:16:41.460Z,35.00
2018-07-28T11:21:44.420Z,36.50
2018-07-28T11:24:15.641Z,35.20
2018-07-28T11:26:46.543Z,33.70
2018-07-28T11:29:17.357Z,33.70
2018-07-28T11:32:05.034Z,33.50
2018-07-28T11:34:52.105Z,33.30
2018-07-28T11:38:38.063Z,33.50
2018-07-28T11:41:24.945Z,33.20
2018-07-28T11:45:16.981Z,33.60
2018-07-28T11:47:47.766Z,34.40
2018-07-28T11:50:20.152Z,34.50
2018-07-28T11:52:52.100Z,35.10
2018-07-28T11:55:23.251Z,35.60
2018-07-28T11:57:53.813Z,35.90
2018-07-28T12:00:25.444Z,35.40
2018-07-28T12:02:56.032Z,35.90
2018-07-28T12:05:27.728Z,36.30
2018-07-28T12:08:01.240Z,36.90
2018-07-28T12:10:32.655Z,37.20
2018-07-28T12:13:04.721Z,37.20
2018-07-28T12:18:09.478Z,38.00
2018-07-28T12:20:40.721Z,37.70
2018-07-28T12:23:14.028Z,37.80
2018-07-28T12:25:50.213Z,37.80
2018-07-28T12:28:21.573Z,37.70
2018-07-28T12:30:52.388Z,37.60
2018-07-28T12:33:23.802Z,36.60
2018-07-28T12:35:55.037Z,36.70
2018-07-28T12:38:27.102Z,36.90
2018-07-28T12:40:59.000Z,36.60
2018-07-28T12:43:30.148Z,36.30
2018-07-28T12:46:00.819Z,36.50
2018-07-28T12:48:32.076Z,36.80
2018-07-28T12:51:03.101Z,36.10
2018-07-28T12:53:34.749Z,35.70
2018-07-28T12:56:06.665Z,35.50
2018-07-28T13:01:09.536Z,36.30
2018-07-28T13:03:40.930Z,36.20
2018-07-28T13:06:11.901Z,36.10
2018-07-28T13:08:43.140Z,36.30
2018-07-28T13:11:16.648Z,37.00
2018-07-28T13:13:49.729Z,37.80
2018-07-28T13:16:27.101Z,37.70
2018-07-28T13:18:58.009Z,37.60
2018-07-28T13:21:32.290Z,36.90
2018-07-28T13:24:06.266Z,36.50
2018-07-28T13:26:37.693Z,36.80
2018-07-28T13:31:42.135Z,36.10
2018-07-28T13:34:13.084Z,35.90
2018-07-28T13:36:45.520Z,36.00
2018-07-28T13:39:17.209Z,36.70
2018-07-28T13:41:48.121Z,36.80
2018-07-28T13:44:19.249Z,36.50
2018-07-28T13:46:51.673Z,36.10
2018-07-28T13:49:22.641Z,36.60
2018-07-28T13:51:53.371Z,36.90
2018-07-28T13:54:24.183Z,37.00
2018-07-28T13:56:55.280Z,37.20
2018-07-28T13:59:26.158Z,37.10
2018-07-28T14:01:57.731Z,37.00
2018-07-28T14:04:30.183Z,36.90
2018-07-28T14:07:01.258Z,36.70
2018-07-28T14:09:32.791Z,36.90
2018-07-28T14:14:35.105Z,37.30
2018-07-28T14:19:36.590Z,36.30
2018-07-28T14:22:09.020Z,36.30
2018-07-28T14:24:40.351Z,36.00
2018-07-28T14:27:11.591Z,35.70
2018-07-28T14:29:42.942Z,35.50
2018-07-28T14:32:13.944Z,35.40
2018-07-28T14:34:44.937Z,35.60
2018-07-28T14:37:16.515Z,35.90
2018-07-28T14:39:49.984Z,36.10
2018-07-28T14:42:21.392Z,36.70
2018-07-28T14:44:52.068Z,36.80
2018-07-28T14:47:23.565Z,37.00
2018-07-28T14:49:54.428Z,36.60
2018-07-28T14:52:28.000Z,36.10
2018-07-28T14:55:01.085Z,36.10
2018-07-28T14:57:34.074Z,36.00
2018-07-28T15:02:35.334Z,36.30
2018-07-28T15:05:06.905Z,36.20
2018-07-28T15:07:39.017Z,36.20
2018-07-28T15:12:40.980Z,36.00
2018-07-28T15:15:15.383Z,36.10
2018-07-28T15:17:46.350Z,35.70
2018-07-28T15:20:18.169Z,35.70
2018-07-28T15:22:49.021Z,35.60
2018-07-28T15:25:20.667Z,35.70
2018-07-28T15:30:23.783Z,35.60
2018-07-28T15:32:55.162Z,35.60
2018-07-28T15:35:25.726Z,35.50
2018-07-28T15:40:26.813Z,35.40
2018-07-28T15:45:29.447Z,35.10
2018-07-28T15:48:00.802Z,34.80
2018-07-28T15:50:32.170Z,33.80
2018-07-28T15:53:03.747Z,33.70
2018-07-28T15:55:34.595Z,33.70
2018-07-28T15:58:05.143Z,33.80
2018-07-28T16:00:35.709Z,33.90
2018-07-28T16:03:06.354Z,33.70
2018-07-28T16:05:37.313Z,33.70
2018-07-28T16:08:08.837Z,33.60
2018-07-28T16:10:39.478Z,33.60
2018-07-28T16:13:09.973Z,33.60
2018-07-28T16:15:40.608Z,33.70
2018-07-28T16:18:11.374Z,33.80
2018-07-28T16:20:42.317Z,34.00
2018-07-28T16:23:13.231Z,33.80
2018-07-28T16:25:44.495Z,33.80
2018-07-28T16:28:16.247Z,33.70
2018-07-28T16:30:47.358Z,33.80
2018-07-28T16:33:18.505Z,33.30
2018-07-28T16:35:49.554Z,33.30
2018-07-28T16:38:20.370Z,33.00
2018-07-28T16:40:50.974Z,33.00
2018-07-28T16:43:21.589Z,33.00
2018-07-28T16:45:55.439Z,32.80
2018-07-28T16:48:27.921Z,32.70
2018-07-28T16:50:58.916Z,32.70
2018-07-28T16:53:29.854Z,32.70
2018-07-28T16:56:01.780Z,32.70
2018-07-28T17:01:02.811Z,32.40
2018-07-28T17:03:35.707Z,32.40
2018-07-28T17:08:37.347Z,32.20
2018-07-28T17:11:08.656Z,32.20
2018-07-28T17:13:39.753Z,32.30
2018-07-28T17:16:12.703Z,32.20
2018-07-28T17:18:44.467Z,32.20
2018-07-28T17:21:16.006Z,32.10
2018-07-28T17:23:46.986Z,32.10
2018-07-28T17:26:17.662Z,32.10
2018-07-28T17:28:48.708Z,32.00
2018-07-28T17:31:19.440Z,32.00
2018-07-28T17:33:50.299Z,32.00
2018-07-28T17:36:20.974Z,31.90
2018-07-28T17:38:53.970Z,31.90
2018-07-28T17:41:24.965Z,31.90
2018-07-28T17:43:56.575Z,31.70
2018-07-28T17:46:28.305Z,31.70
2018-07-28T17:48:59.250Z,31.60
2018-07-28T17:51:31.342Z,31.50
2018-07-28T17:54:02.178Z,31.40
2018-07-28T17:56:34.904Z,31.20
2018-07-28T17:59:07.149Z,31.10
2018-07-28T18:01:38.115Z,31.10
2018-07-28T18:04:08.854Z,31.00
2018-07-28T18:06:39.676Z,30.90
2018-07-28T18:09:13.066Z,30.80
2018-07-28T18:11:44.773Z,30.60
2018-07-28T18:14:18.094Z,30.50
2018-07-28T18:16:48.678Z,30.40
2018-07-28T18:19:19.498Z,30.30
2018-07-28T18:24:20.746Z,30.10
2018-07-28T18:26:51.825Z,30.00
2018-07-28T18:31:54.204Z,29.70
2018-07-28T18:34:24.888Z,29.50
2018-07-28T18:36:55.611Z,29.20
2018-07-28T18:39:26.330Z,29.00
2018-07-28T18:41:57.018Z,28.90
2018-07-28T18:44:28.530Z,28.70
2018-07-28T18:46:59.163Z,28.50
2018-07-28T18:49:30.732Z,28.50
2018-07-28T18:52:01.872Z,28.10
2018-07-28T18:54:33.183Z,28.00
2018-07-28T18:57:03.837Z,27.90
2018-07-28T18:59:34.574Z,27.80
2018-07-28T19:02:05.483Z,27.80
2018-07-28T19:04:36.647Z,27.70
2018-07-28T19:07:07.738Z,27.60
2018-07-28T19:09:44.531Z,27.40
2018-07-28T19:12:15.502Z,27.30
2018-07-28T19:14:46.508Z,27.20
2018-07-28T19:17:17.475Z,27.00
2018-07-28T19:19:48.268Z,26.90
2018-07-28T19:22:24.644Z,26.90
2018-07-28T19:24:56.051Z,26.80
2018-07-28T19:27:26.978Z,26.80
2018-07-28T19:29:58.082Z,26.70
2018-07-28T19:32:29.554Z,26.70
2018-07-28T19:35:00.319Z,26.50
2018-07-28T19:37:32.776Z,26.40
2018-07-28T19:40:04.511Z,26.20
2018-07-28T19:42:42.068Z,26.20
2018-07-28T19:45:12.986Z,26.10
2018-07-28T19:47:43.885Z,26.00
2018-07-28T19:50:14.622Z,25.90
2018-07-28T19:52:45.312Z,25.90
2018-07-28T19:55:17.280Z,25.80
2018-07-28T19:57:48.727Z,25.70
2018-07-28T20:00:19.490Z,25.70
2018-07-28T20:02:50.086Z,25.50
2018-07-28T20:05:20.768Z,25.30
2018-07-28T20:07:51.827Z,25.30
2018-07-28T20:10:22.625Z,25.20
2018-07-28T20:12:53.333Z,25.20
2018-07-28T20:15:25.008Z,25.30
2018-07-28T20:17:55.771Z,25.20
2018-07-28T20:20:26.694Z,25.10
2018-07-28T20:22:58.143Z,25.10
2018-07-28T20:25:29.115Z,24.90
2018-07-28T20:28:00.349Z,24.80
2018-07-28T20:30:31.221Z,24.70
2018-07-28T20:35:34.044Z,24.50
2018-07-28T20:38:06.072Z,24.50
2018-07-28T20:40:39.430Z,24.40
2018-07-28T20:43:11.560Z,24.20
2018-07-28T20:45:42.258Z,24.10
2018-07-28T20:48:13.114Z,24.10
2018-07-28T20:50:44.544Z,24.10
2018-07-28T20:53:15.239Z,23.60
2018-07-28T20:55:46.389Z,23.50
2018-07-28T20:58:18.070Z,23.60
2018-07-28T21:00:49.490Z,23.60
2018-07-28T21:03:20.276Z,23.50
2018-07-28T21:05:51.731Z,23.50
2018-07-28T21:08:22.612Z,23.40
2018-07-28T21:10:53.534Z,23.50
2018-07-28T21:13:25.132Z,23.30
2018-07-28T21:15:56.115Z,23.00
2018-07-28T21:18:26.772Z,22.60
2018-07-28T21:20:59.698Z,22.60
2018-07-28T21:23:31.399Z,22.60
2018-07-28T21:26:02.199Z,22.70
2018-07-28T21:28:33.817Z,22.80
2018-07-28T21:31:04.797Z,22.90
2018-07-28T21:33:36.279Z,22.90
2018-07-28T21:36:08.002Z,22.90
2018-07-28T21:38:39.239Z,22.90
2018-07-28T21:41:10.191Z,22.80
2018-07-28T21:43:42.916Z,22.60
2018-07-28T21:46:14.476Z,22.50
2018-07-28T21:48:45.214Z,22.40
2018-07-28T21:51:15.854Z,22.30
2018-07-28T21:53:46.703Z,22.30
2018-07-28T21:56:21.305Z,22.20
2018-07-28T21:58:55.576Z,22.20
2018-07-28T22:01:27.025Z,22.20
2018-07-28T22:03:57.724Z,22.20
2018-07-28T22:06:28.394Z,22.20
2018-07-28T22:08:59.103Z,22.20
2018-07-28T22:11:30.006Z,22.20
2018-07-28T22:16:31.265Z,21.90
2018-07-28T22:19:02.361Z,21.80
2018-07-28T22:24:05.032Z,21.80
2018-07-28T22:26:36.006Z,21.80
2018-07-28T22:29:07.350Z,21.80
2018-07-28T22:31:38.959Z,21.70
2018-07-28T22:34:11.157Z,21.70
2018-07-28T22:36:42.558Z,21.60
2018-07-28T22:41:44.652Z,21.50
2018-07-28T22:44:16.486Z,21.50
2018-07-28T22:46:47.949Z,21.50
2018-07-28T22:49:20.260Z,21.50
2018-07-28T22:51:51.062Z,21.30
2018-07-28T22:54:22.311Z,21.10
2018-07-28T22:56:53.498Z,20.90
2018-07-28T22:59:25.530Z,20.80
2018-07-28T23:01:56.892Z,20.80
2018-07-28T23:04:28.670Z,20.70
2018-07-28T23:07:00.324Z,20.80
2018-07-28T23:09:31.488Z,20.80
2018-07-28T23:12:02.886Z,20.70
2018-07-28T23:14:33.736Z,20.70
2018-07-28T23:17:04.702Z,20.70
2018-07-28T23:19:35.698Z,20.70
2018-07-28T23:24:37.563Z,20.70
2018-07-28T23:27:09.082Z,20.60
2018-07-28T23:29:39.990Z,20.50
2018-07-28T23:32:10.785Z,20.40
2018-07-28T23:34:41.736Z,20.30
2018-07-28T23:39:42.964Z,20.20
2018-07-28T23:42:13.596Z,20.20
2018-07-28T23:44:44.313Z,20.20
2018-07-28T23:47:15.134Z,20.30
2018-07-28T23:49:45.953Z,20.30
2018-07-28T23:52:17.536Z,20.40
2018-07-28T23:54:49.736Z,20.30
2018-07-28T23:57:20.513Z,20.30
2018-07-28T23:59:51.200Z,20.30
